キエフ/ボリースピリ の空港の天気 - METARとTAF

ボリースピリ国際空港(キエフ) ( UKBB / KBP ) - ウクライナ ボリスピリ (キエフ近郊)
飛行場実況気象(Metar)
観測時間04/25 11:00 EEST (04/25 08:00 UTC)
風向・風速南 3m/s
視程10km以上
天気現象
なし
気温19℃
湿度30%
気圧1027hPa
METARUKBB 250800Z 17003MPS 120V210 CAVOK 19/01 Q1027 R88/D NOSIG
過去の天気等 Google飛行場航空写真 Wunderground天気予報

過去48時間のMETAR

飛行場予報(TAF)
発表時間: 4/25 08:01 EEST (4/25 05:01 UTC)
予報対象時間: 25日9時 EEST ~ 26日9時 EEST
風向・風速南南東 3m/s
視程10km以上
全天の8割程度の雲 雲底高度 1220m
25日11時 EEST ~ 25日12時 EEST に徐々に
風向・風速南 5m/s 瞬間風速 10m/s
25日23時 EEST ~ 26日9時 EEST に一時的に
視程2000m
天気現象もや 煙
全天の8割程度の雲 雲底高度 180m
TAF UKBB 250501Z 2506/2606 15003MPS 9999 BKN040 TX21/2512Z TN04/2603Z
BECMG 2508/2509 17005G10MPS
TEMPO 2520/2606 2000 BR FU BKN006